Time;durP1;ratioP1;P1;durP2;ratioP2;P2;SDS_P1;SDS_P2;PMS_P1;PMS_P2;Temp;Humidity;BMP_temperature;BMP_pressure;BME280_temperature;BME280_humidity;BME280_pressure;Samples;Min_cycle;Max_cycle;Signal;HPM_P1;HPM_P2
2020/07/09 00:00:31;;;;;;;3;1.4;;;;;;;17.01;65.39551;940.3976;;;;
2020/07/09 00:02:58;;;;;;;7.3;1.7;;;;;;;17.05;65.11035;940.3116;;;;
2020/07/09 00:05:23;;;;;;;2.4;1.1;;;;;;;16.84;65.50879;940.3675;;;;
2020/07/09 00:07:48;;;;;;;3.5;1.1;;;;;;;16.47;66.34277;940.3633;;;;
2020/07/09 00:10:13;;;;;;;3.9;1.1;;;;;;;16.15;67.35938;940.344;;;;
2020/07/09 00:12:38;;;;;;;5;1.2;;;;;;;15.88;68.21973;940.3644;;;;
2020/07/09 00:15:04;;;;;;;4;1;;;;;;;15.75;68.87012;940.3739;;;;
2020/07/09 00:17:31;;;;;;;2.4;1.1;;;;;;;16.05;68.36035;940.3264;;;;
2020/07/09 00:19:56;;;;;;;8.6;1.6;;;;;;;16.25;67.95313;940.3474;;;;
2020/07/09 00:22:24;;;;;;;5.4;1.6;;;;;;;16.47;67.35059;940.2443;;;;
2020/07/09 00:24:49;;;;;;;5;1.4;;;;;;;16.64;67.93262;940.2574;;;;
2020/07/09 00:27:15;;;;;;;7.7;1.6;;;;;;;16.7;66.20508;940.2289;;;;
2020/07/09 00:29:42;;;;;;;3.6;1;;;;;;;16.65;65.88379;940.2283;;;;
2020/07/09 00:32:07;;;;;;;5.5;1.4;;;;;;;16.69;67.80176;940.2322;;;;
2020/07/09 00:34:32;;;;;;;2.4;1.2;;;;;;;16.7;66.44824;940.1781;;;;
2020/07/09 00:37:02;;;;;;;3.2;1.2;;;;;;;16.68;66.60645;940.2339;;;;
2020/07/09 00:39:27;;;;;;;2.9;1.1;;;;;;;16.71;66.9248;940.2183;;;;
2020/07/09 00:41:52;;;;;;;2.4;1.3;;;;;;;16.69;65.96191;940.1758;;;;
2020/07/09 00:44:17;;;;;;;5.4;1.5;;;;;;;16.65;65.90723;940.2211;;;;
2020/07/09 00:46:42;;;;;;;3.4;1.3;;;;;;;16.68;66.14258;940.2693;;;;
2020/07/09 00:49:07;;;;;;;4.6;1.2;;;;;;;16.52;65.43652;940.2438;;;;
2020/07/09 00:51:32;;;;;;;3.5;1.1;;;;;;;16.4;65.54688;940.2142;;;;
2020/07/09 00:53:57;;;;;;;3.4;1.2;;;;;;;16.31;65.64746;940.2569;;;;
2020/07/09 00:56:25;;;;;;;6.5;1.3;;;;;;;16.38;65.8916;940.1878;;;;
2020/07/09 00:58:50;;;;;;;5.3;1.2;;;;;;;16.45;66.35254;940.2486;;;;
2020/07/09 01:01:15;;;;;;;3.2;1.2;;;;;;;16.51;66.90527;940.2729;;;;
2020/07/09 01:03:41;;;;;;;3.4;1.1;;;;;;;16.51;66.74316;940.2319;;;;
2020/07/09 01:06:06;;;;;;;3.7;1.1;;;;;;;16.39;65.62598;940.2609;;;;
2020/07/09 01:08:32;;;;;;;4;1.2;;;;;;;16.28;65.89941;940.2523;;;;
2020/07/09 01:10:57;;;;;;;4.1;1.2;;;;;;;16.14;66.46777;940.2436;;;;
2020/07/09 01:13:22;;;;;;;3.5;1;;;;;;;16;66.94434;940.3169;;;;
2020/07/09 01:15:48;;;;;;;3.9;1.3;;;;;;;15.97;67.22949;940.2881;;;;
2020/07/09 01:18:15;;;;;;;6;1.2;;;;;;;15.86;67.15332;940.2794;;;;
2020/07/09 01:20:38;;;;;;;3.8;1.3;;;;;;;15.77;67.03516;940.2726;;;;
2020/07/09 01:23:03;;;;;;;7.4;1.6;;;;;;;15.85;67.05957;940.204;;;;
2020/07/09 01:25:28;;;;;;;5.9;1.2;;;;;;;15.89;68.18457;940.2928;;;;
2020/07/09 01:27:53;;;;;;;3.3;1.4;;;;;;;15.93;67.10645;940.2861;;;;
2020/07/09 01:30:18;;;;;;;2.6;1;;;;;;;15.9;66.80176;940.2622;;;;
2020/07/09 01:32:45;;;;;;;5.4;1.2;;;;;;;15.77;66.90723;940.1898;;;;
2020/07/09 01:35:10;;;;;;;3.8;1.1;;;;;;;15.83;67.86523;940.2764;;;;
2020/07/09 01:38:21;;;;;;;4.4;1.2;;;;;;;15.83;67.88867;940.2266;;;;
2020/07/09 01:40:47;;;;;;;2.8;1.1;;;;;;;15.88;67.57227;940.2255;;;;
2020/07/09 01:43:12;;;;;;;3.2;1.1;;;;;;;15.92;68.48047;940.1953;;;;
2020/07/09 01:45:41;;;;;;;2.3;1;;;;;;;15.8;68.09277;940.1624;;;;
2020/07/09 01:48:07;;;;;;;5.1;1.4;;;;;;;15.68;68.22266;940.2137;;;;
2020/07/09 01:50:33;;;;;;;3.6;1.1;;;;;;;15.73;68.32227;940.1685;;;;
2020/07/09 01:53:03;;;;;;;2.4;1;;;;;;;15.85;67.83203;940.192;;;;
2020/07/09 01:55:28;;;;;;;2.6;1;;;;;;;15.83;68.21191;940.1744;;;;
2020/07/09 01:57:53;;;;;;;4.3;1.3;;;;;;;15.76;67.87598;940.2469;;;;
2020/07/09 02:00:19;;;;;;;2.6;1.1;;;;;;;15.71;68.58594;940.1903;;;;
2020/07/09 02:02:45;;;;;;;3.7;1.2;;;;;;;15.64;67.77832;940.2189;;;;
2020/07/09 02:05:10;;;;;;;3.6;1.1;;;;;;;15.59;68.66992;940.2527;;;;
2020/07/09 02:07:37;;;;;;;2.7;1.2;;;;;;;15.6;68.55664;940.2438;;;;
2020/07/09 02:10:02;;;;;;;3.3;1.2;;;;;;;15.62;69.38184;940.2993;;;;
2020/07/09 02:12:29;;;;;;;3.4;1.3;;;;;;;15.54;67.72656;940.2792;;;;
2020/07/09 02:14:54;;;;;;;2.2;1.1;;;;;;;15.59;68.44043;940.2695;;;;
2020/07/09 02:17:20;;;;;;;3.9;1.1;;;;;;;15.61;68.82422;940.3528;;;;
2020/07/09 02:19:45;;;;;;;3.5;1.1;;;;;;;15.45;68.10547;940.3488;;;;
2020/07/09 02:22:12;;;;;;;1.9;1;;;;;;;15.43;68.53125;940.3256;;;;
2020/07/09 02:24:37;;;;;;;3.4;1.3;;;;;;;15.39;68.7666;940.3367;;;;
2020/07/09 02:27:06;;;;;;;4.3;1.2;;;;;;;15.47;68.62988;940.3382;;;;
2020/07/09 02:29:31;;;;;;;2.8;1.2;;;;;;;15.4;69.08008;940.3439;;;;
2020/07/09 02:31:59;;;;;;;3;1.1;;;;;;;15.18;69.61133;940.3063;;;;
2020/07/09 02:34:24;;;;;;;3.8;1.3;;;;;;;15.05;70.23535;940.2885;;;;
2020/07/09 02:36:54;;;;;;;4.9;1.2;;;;;;;14.97;70.33789;940.3367;;;;
2020/07/09 02:39:21;;;;;;;2.5;1.3;;;;;;;14.87;70.7832;940.2889;;;;
2020/07/09 02:41:46;;;;;;;5.9;1.5;;;;;;;14.49;72.24316;940.348;;;;
2020/07/09 02:44:12;;;;;;;5.7;1.7;;;;;;;14.62;72.43848;940.2967;;;;
2020/07/09 02:46:40;;;;;;;4;1.1;;;;;;;14.61;72.35449;940.298;;;;
2020/07/09 02:49:05;;;;;;;5;1.3;;;;;;;14.52;72.46777;940.3359;;;;
2020/07/09 02:51:30;;;;;;;5.9;1.6;;;;;;;14.52;72.61621;940.2686;;;;
2020/07/09 02:53:56;;;;;;;11.8;1.9;;;;;;;14.57;72.5;940.3198;;;;
2020/07/09 02:56:21;;;;;;;3;1.3;;;;;;;14.6;72.07813;940.3044;;;;
2020/07/09 02:58:48;;;;;;;10.9;1.8;;;;;;;14.61;71.95117;940.2083;;;;
2020/07/09 03:01:13;;;;;;;8.9;2.2;;;;;;;14.67;71.96289;940.3094;;;;
2020/07/09 03:03:41;;;;;;;3.6;1.5;;;;;;;14.72;71.90137;940.3574;;;;
2020/07/09 03:06:06;;;;;;;6.3;2.1;;;;;;;14.73;71.78711;940.3564;;;;
2020/07/09 03:08:30;;;;;;;9.5;2.9;;;;;;;14.35;72.99219;940.3677;;;;
2020/07/09 03:10:56;;;;;;;11.6;2.9;;;;;;;14.2;73.58789;940.2651;;;;
2020/07/09 03:13:22;;;;;;;5.1;1.6;;;;;;;14.22;73.62598;940.3503;;;;
2020/07/09 03:15:47;;;;;;;5.1;1.6;;;;;;;14.47;72.89648;940.3176;;;;
2020/07/09 03:18:12;;;;;;;7.3;2.1;;;;;;;14.48;72.9209;940.3873;;;;
2020/07/09 03:20:41;;;;;;;5.2;1.4;;;;;;;14.43;72.55664;940.3735;;;;
2020/07/09 03:23:06;;;;;;;4.2;1.7;;;;;;;14.65;72.37305;940.3879;;;;
2020/07/09 03:25:31;;;;;;;6.1;1.4;;;;;;;14.7;71.8291;940.3942;;;;
2020/07/09 03:27:56;;;;;;;4.7;1.6;;;;;;;14.63;72.04785;940.4113;;;;
2020/07/09 03:30:21;;;;;;;7.8;1.8;;;;;;;14.45;72.60547;940.4498;;;;
2020/07/09 03:32:47;;;;;;;5.9;1.6;;;;;;;14.36;72.83203;940.4117;;;;
2020/07/09 03:35:12;;;;;;;8.6;1.7;;;;;;;14.35;72.92188;940.3998;;;;
2020/07/09 03:37:40;;;;;;;7.1;1.8;;;;;;;14.47;73.03516;940.3713;;;;
2020/07/09 03:40:05;;;;;;;7.4;1.5;;;;;;;14.42;72.30176;940.4208;;;;
2020/07/09 03:42:30;;;;;;;8;1.9;;;;;;;14.29;73.14258;940.4167;;;;
2020/07/09 03:44:55;;;;;;;7.1;1.8;;;;;;;14.39;73.82617;940.4542;;;;
2020/07/09 03:47:23;;;;;;;2.5;1.2;;;;;;;14.16;73.29297;940.4582;;;;
2020/07/09 03:49:48;;;;;;;8;2;;;;;;;14.29;73.01563;940.5048;;;;
2020/07/09 03:52:13;;;;;;;4.8;1.3;;;;;;;14.27;72.7832;940.5225;;;;
2020/07/09 03:54:38;;;;;;;7.3;1.7;;;;;;;14.24;72.8457;940.5193;;;;
2020/07/09 03:57:05;;;;;;;3.9;1.5;;;;;;;14.14;73.38184;940.5142;;;;
2020/07/09 03:59:30;;;;;;;5.5;1.2;;;;;;;14.19;73.5293;940.4974;;;;
2020/07/09 04:02:32;;;;;;;6.1;1.6;;;;;;;14.13;73.50879;940.572;;;;
2020/07/09 04:04:59;;;;;;;5.3;1.7;;;;;;;14.19;73.50586;940.5983;;;;
2020/07/09 04:07:24;;;;;;;7.6;1.8;;;;;;;14.36;74.21484;940.5824;;;;
2020/07/09 04:09:51;;;;;;;5.5;1.5;;;;;;;14.4;72.82715;940.6369;;;;
2020/07/09 04:12:17;;;;;;;8.6;2;;;;;;;14.34;73.10547;940.584;;;;
2020/07/09 04:14:45;;;;;;;9.2;2;;;;;;;14.44;72.77637;940.7023;;;;
2020/07/09 04:17:10;;;;;;;7.6;2.1;;;;;;;14.43;73.14355;940.6724;;;;
2020/07/09 04:19:38;;;;;;;5.5;1.8;;;;;;;14.48;72.90918;940.6998;;;;
2020/07/09 04:22:04;;;;;;;5.2;1.6;;;;;;;14.49;72.95703;940.7286;;;;
2020/07/09 04:24:30;;;;;;;8.6;1.8;;;;;;;14.25;74.15039;940.738;;;;
2020/07/09 04:26:55;;;;;;;6;1.8;;;;;;;13.9;75.4707;940.7911;;;;
2020/07/09 04:29:20;;;;;;;8.8;2;;;;;;;13.88;75.80176;940.731;;;;
2020/07/09 04:31:47;;;;;;;13.9;2.8;;;;;;;13.97;75.69043;940.7022;;;;
2020/07/09 04:34:12;;;;;;;13.8;2.7;;;;;;;14.09;75.05469;940.8058;;;;
2020/07/09 04:36:38;;;;;;;6.6;1.8;;;;;;;14.22;74.43359;940.8125;;;;
2020/07/09 04:39:03;;;;;;;8.2;2.1;;;;;;;14.26;74.27637;940.8148;;;;
2020/07/09 04:41:30;;;;;;;9.7;2.6;;;;;;;14.38;74.04492;940.8171;;;;
2020/07/09 04:43:55;;;;;;;9.8;2.4;;;;;;;14.51;73.40918;940.8167;;;;
2020/07/09 04:46:23;;;;;;;6.3;2;;;;;;;14.51;73.52441;940.8336;;;;
2020/07/09 04:48:47;;;;;;;5.6;1.8;;;;;;;14.58;73.41016;940.8231;;;;
2020/07/09 04:51:13;;;;;;;16.5;3.3;;;;;;;14.63;73.2793;940.8585;;;;
2020/07/09 04:53:39;;;;;;;7.5;2.1;;;;;;;14.54;73.34668;940.7991;;;;
2020/07/09 04:56:06;;;;;;;5.6;1.9;;;;;;;14.59;73.1123;940.8711;;;;
2020/07/09 04:58:29;;;;;;;9.3;2;;;;;;;14.68;72.74707;940.9202;;;;
2020/07/09 05:00:56;;;;;;;7.8;1.8;;;;;;;14.76;72.21875;940.98;;;;
2020/07/09 05:03:21;;;;;;;4.4;1.4;;;;;;;14.84;71.70117;940.9745;;;;
2020/07/09 05:05:47;;;;;;;7.7;1.8;;;;;;;14.61;73.08008;940.8767;;;;
2020/07/09 05:08:11;;;;;;;6.5;1.7;;;;;;;14.59;73.44629;940.8158;;;;
2020/07/09 05:10:37;;;;;;;4.6;1.4;;;;;;;15.18;72.18359;940.8798;;;;
2020/07/09 05:13:02;;;;;;;6.6;1.6;;;;;;;16.81;67.80664;940.9;;;;
2020/07/09 05:15:32;;;;;;;9.5;1.8;;;;;;;18.47;61.31055;940.8596;;;;
2020/07/09 05:17:59;;;;;;;7.8;1.9;;;;;;;20.14;55.25;940.8347;;;;
2020/07/09 05:20:24;;;;;;;7.9;1.6;;;;;;;19.93;54.87598;940.7955;;;;
2020/07/09 05:22:51;;;;;;;5.8;1.7;;;;;;;21.12;52.77637;940.8036;;;;
2020/07/09 05:25:16;;;;;;;7.5;2;;;;;;;22.25;49.12402;940.8668;;;;
2020/07/09 05:27:41;;;;;;;9.6;2.1;;;;;;;22.6;48.64551;940.8309;;;;
2020/07/09 05:30:14;;;;;;;6.7;1.5;;;;;;;23.44;44.89258;940.7858;;;;
2020/07/09 05:32:33;;;;;;;9.1;1.8;;;;;;;23.94;44.15527;940.8458;;;;
2020/07/09 05:34:58;;;;;;;3.6;1.2;;;;;;;21.61;48.95898;940.7933;;;;
2020/07/09 05:37:33;;;;;;;4.3;1.2;;;;;;;22.64;49.6709;940.7617;;;;
2020/07/09 05:39:55;;;;;;;4.8;1;;;;;;;23.71;44.39063;940.8453;;;;
2020/07/09 05:42:22;;;;;;;4.9;1.3;;;;;;;24.32;42.62598;940.8702;;;;
2020/07/09 05:44:47;;;;;;;4.5;1.4;;;;;;;24.71;42.93359;940.8145;;;;
2020/07/09 05:47:14;;;;;;;5.1;1.1;;;;;;;25.17;41.20801;940.7928;;;;
2020/07/09 05:49:38;;;;;;;3.8;1.1;;;;;;;24.77;40.58105;940.7869;;;;
2020/07/09 05:52:10;;;;;;;2.9;1.2;;;;;;;25.02;42.04395;940.8517;;;;
2020/07/09 05:54:38;;;;;;;4.3;1.2;;;;;;;25.33;39.77051;940.7842;;;;
2020/07/09 05:57:03;;;;;;;8.2;1.4;;;;;;;25.78;39.60938;940.7064;;;;
2020/07/09 05:59:30;;;;;;;3.2;0.9;;;;;;;26.07;39.36328;940.7106;;;;
2020/07/09 06:01:55;;;;;;;5.7;1.1;;;;;;;27.17;37.69238;940.7242;;;;
2020/07/09 06:04:21;;;;;;;6.8;1.3;;;;;;;26.53;38.72852;940.7704;;;;
2020/07/09 06:06:46;;;;;;;5.5;1.2;;;;;;;27.59;39.48438;940.7235;;;;
2020/07/09 06:09:13;;;;;;;4.9;1.3;;;;;;;27.7;37.13184;940.6464;;;;
2020/07/09 06:11:38;;;;;;;5;1.4;;;;;;;28.94;35.83008;940.7081;;;;
2020/07/09 06:14:04;;;;;;;5.2;1.2;;;;;;;29.43;35.91602;940.6233;;;;
2020/07/09 06:16:29;;;;;;;4.5;1.5;;;;;;;29.48;35.52637;940.5923;;;;
2020/07/09 06:18:56;;;;;;;6.8;1.2;;;;;;;30.12;33.73926;940.5784;;;;
2020/07/09 06:21:21;;;;;;;6;1.6;;;;;;;30.32;31.93945;940.5892;;;;
2020/07/09 06:24:09;;;;;;;4.5;1.1;;;;;;;28.83;34.33301;940.5756;;;;
2020/07/09 06:26:15;;;;;;;3.7;1.1;;;;;;;28.13;35.27832;940.505;;;;
2020/07/09 06:28:40;;;;;;;5.6;1.6;;;;;;;28.63;34.43652;940.5736;;;;
2020/07/09 06:31:05;;;;;;;5.4;1.5;;;;;;;29.7;35.10254;940.5005;;;;
2020/07/09 06:33:30;;;;;;;4;1.4;;;;;;;29.71;31.70508;940.438;;;;
2020/07/09 06:35:55;;;;;;;5.4;1.5;;;;;;;29.71;32.38477;940.4739;;;;
2020/07/09 06:38:29;;;;;;;2.2;1.3;;;;;;;30.94;32.59277;940.4426;;;;
2020/07/09 06:40:48;;;;;;;2.5;1.1;;;;;;;30.92;32.18457;940.4115;;;;
2020/07/09 06:43:17;;;;;;;3.3;0.9;;;;;;;31.36;28.375;940.4497;;;;
2020/07/09 06:45:42;;;;;;;2.5;1;;;;;;;29.88;31.47852;940.4562;;;;
2020/07/09 06:48:08;;;;;;;5.5;1.2;;;;;;;29.29;31.12695;940.3972;;;;
2020/07/09 06:50:44;;;;;;;3.5;0.9;;;;;;;28.78;36.09082;940.4609;;;;
2020/07/09 06:53:03;;;;;;;3.5;1;;;;;;;29.97;33.01172;940.4508;;;;
2020/07/09 06:55:27;;;;;;;2.8;1;;;;;;;31.26;30.5459;940.3325;;;;
2020/07/09 06:57:51;;;;;;;3.3;1.1;;;;;;;32.16;30.96582;940.5287;;;;
2020/07/09 07:00:16;;;;;;;2.3;0.9;;;;;;;32.87;26.88379;940.4626;;;;
2020/07/09 07:02:43;;;;;;;3.4;0.9;;;;;;;33.37;27.7793;940.4034;;;;
2020/07/09 07:05:08;;;;;;;3.2;1;;;;;;;33.69;27.2207;940.4034;;;;
2020/07/09 07:07:36;;;;;;;2.4;1;;;;;;;33.76;26.85254;940.3588;;;;
2020/07/09 07:10:02;;;;;;;2.5;0.9;;;;;;;32.75;27.00879;940.4146;;;;
2020/07/09 07:12:27;;;;;;;3.8;0.9;;;;;;;32.44;27.84277;940.3997;;;;
2020/07/09 07:14:52;;;;;;;2.6;1;;;;;;;32.18;28.6416;940.3542;;;;
2020/07/09 07:17:18;;;;;;;5.1;1.1;;;;;;;32.92;29.8418;940.3;;;;
2020/07/09 07:19:43;;;;;;;2.9;1.1;;;;;;;34.52;28.30762;940.2534;;;;
2020/07/09 07:22:10;;;;;;;1.8;1;;;;;;;35.42;26.17773;940.295;;;;
2020/07/09 07:24:34;;;;;;;2.8;0.8;;;;;;;35.66;24.11328;940.1925;;;;
2020/07/09 07:27:01;;;;;;;2.4;0.9;;;;;;;35.94;24.64746;940.1886;;;;
2020/07/09 07:29:26;;;;;;;3.5;1.1;;;;;;;37;23.72363;940.2842;;;;
2020/07/09 07:31:53;;;;;;;2.3;1;;;;;;;37.97;21.52734;940.1872;;;;
2020/07/09 07:34:18;;;;;;;3.2;1.1;;;;;;;37.45;23.44336;940.1755;;;;
2020/07/09 07:36:43;;;;;;;4.5;1.1;;;;;;;36.7;24.76172;940.2075;;;;
2020/07/09 07:39:08;;;;;;;3;1.2;;;;;;;36.43;22.31445;940.2139;;;;
2020/07/09 07:41:33;;;;;;;3;0.9;;;;;;;36.05;24.10938;940.1901;;;;
2020/07/09 07:43:59;;;;;;;2.4;0.9;;;;;;;35.19;26.71973;940.1653;;;;
2020/07/09 07:46:24;;;;;;;2;0.9;;;;;;;36.31;23.50684;940.2227;;;;
2020/07/09 07:48:51;;;;;;;3;0.9;;;;;;;36.46;23.81641;940.1953;;;;
2020/07/09 07:51:16;;;;;;;2.8;0.8;;;;;;;38.05;21.39746;940.1227;;;;
2020/07/09 07:53:41;;;;;;;2.9;0.8;;;;;;;38.62;20.12305;940.1058;;;;
2020/07/09 07:56:06;;;;;;;3.6;1;;;;;;;37.86;21.93555;940.0477;;;;
2020/07/09 07:58:32;;;;;;;3.1;0.8;;;;;;;38.49;19.18164;940.0695;;;;
2020/07/09 08:00:57;;;;;;;2.9;0.9;;;;;;;37.88;22.77344;940.0469;;;;
2020/07/09 08:03:22;;;;;;;2.4;1;;;;;;;37.71;22.47363;940.0848;;;;
2020/07/09 08:05:47;;;;;;;3.8;1.1;;;;;;;38.23;20.82227;939.9977;;;;
2020/07/09 08:08:13;;;;;;;2;0.9;;;;;;;37.92;22.48438;940.0369;;;;
2020/07/09 08:10:38;;;;;;;2.4;0.9;;;;;;;38.37;21.80078;940.0233;;;;
2020/07/09 08:13:03;;;;;;;2.7;1.1;;;;;;;37.66;25.22559;940.0215;;;;
2020/07/09 08:15:30;;;;;;;2.6;1.2;;;;;;;37.07;23.33887;939.9885;;;;
2020/07/09 08:17:55;;;;;;;4.1;1.2;;;;;;;37.58;24.43262;939.938;;;;
2020/07/09 08:20:21;;;;;;;2.6;0.8;;;;;;;37.72;23.46875;939.9603;;;;
2020/07/09 08:22:46;;;;;;;4.4;0.9;;;;;;;37.65;23.49023;940.0253;;;;
2020/07/09 08:25:13;;;;;;;3.7;1.2;;;;;;;37.51;24.50195;940.0441;;;;
2020/07/09 08:27:38;;;;;;;2.8;0.9;;;;;;;37.04;21.77441;940.0093;;;;
2020/07/09 08:30:03;;;;;;;2.8;1.2;;;;;;;38.05;23.69336;939.9978;;;;
2020/07/09 08:32:28;;;;;;;2.2;0.8;;;;;;;37.48;22.55957;939.9948;;;;
2020/07/09 08:34:55;;;;;;;3.3;1.3;;;;;;;37.68;23.70996;939.9559;;;;
2020/07/09 08:37:20;;;;;;;2.6;1;;;;;;;38.24;23.78809;939.9617;;;;
2020/07/09 08:39:46;;;;;;;2.7;0.7;;;;;;;37.57;25.60938;939.9473;;;;
2020/07/09 08:44:35;;;;;;;3.6;1;;;;;;;37.69;26.45313;939.8569;;;;
2020/07/09 08:47:02;;;;;;;8.3;1.3;;;;;;;37.67;25.43262;939.7944;;;;
2020/07/09 08:49:27;;;;;;;2.5;0.9;;;;;;;37.88;26.58496;939.7519;;;;
2020/07/09 08:51:53;;;;;;;3.4;1.2;;;;;;;37.13;25.98438;939.7651;;;;
2020/07/09 08:54:18;;;;;;;4.3;0.8;;;;;;;37.3;25.2666;939.7408;;;;
2020/07/09 08:56:46;;;;;;;3.4;0.9;;;;;;;38.02;24.75977;939.7088;;;;
2020/07/09 08:59:11;;;;;;;3.1;0.9;;;;;;;38.75;24.71387;939.6337;;;;
2020/07/09 09:01:36;;;;;;;3.8;0.9;;;;;;;38.46;24.0293;939.6108;;;;
2020/07/09 09:04:02;;;;;;;2.9;0.9;;;;;;;38.55;24.71582;939.5684;;;;
2020/07/09 09:06:27;;;;;;;3;0.7;;;;;;;39.03;24.25488;939.5621;;;;
2020/07/09 09:08:52;;;;;;;3.2;0.8;;;;;;;37.97;25.47363;939.5596;;;;
2020/07/09 09:11:17;;;;;;;3.2;0.9;;;;;;;38.1;24.54492;939.5403;;;;
2020/07/09 09:13:42;;;;;;;5.5;0.9;;;;;;;38.15;25.05859;939.5538;;;;
2020/07/09 09:16:07;;;;;;;2.4;0.9;;;;;;;38.2;24.74512;939.5436;;;;
2020/07/09 09:18:33;;;;;;;4.4;1.9;;;;;;;37.95;25.96973;939.4911;;;;
2020/07/09 09:20:58;;;;;;;3.5;0.8;;;;;;;37.89;25.32324;939.4799;;;;
2020/07/09 09:23:25;;;;;;;3.3;0.8;;;;;;;37.13;26.0332;939.495;;;;
2020/07/09 09:25:50;;;;;;;2.7;0.8;;;;;;;36.95;28.45801;939.5079;;;;
2020/07/09 09:28:16;;;;;;;2.7;0.9;;;;;;;36.45;27.61621;939.5132;;;;
2020/07/09 09:30:41;;;;;;;4.4;1.2;;;;;;;36.29;28.56152;939.5019;;;;
2020/07/09 09:33:07;;;;;;;5.2;1;;;;;;;35.94;29.88184;939.469;;;;
2020/07/09 09:35:33;;;;;;;5.4;1.2;;;;;;;35.8;31.56445;939.46;;;;
2020/07/09 09:37:59;;;;;;;3.7;0.9;;;;;;;35.01;31.72754;939.4702;;;;
2020/07/09 09:40:24;;;;;;;3;0.8;;;;;;;35.18;30.60547;939.405;;;;
2020/07/09 09:42:50;;;;;;;4.9;1;;;;;;;34.83;31.46094;939.3691;;;;
2020/07/09 09:45:16;;;;;;;3.2;1;;;;;;;34.33;29.63281;939.3419;;;;
2020/07/09 09:47:42;;;;;;;3.2;1.3;;;;;;;33.94;28.94531;939.3021;;;;
2020/07/09 09:50:07;;;;;;;6.5;4.7;;;;;;;33.38;32.25098;939.2875;;;;
2020/07/09 09:52:33;;;;;;;2.5;1;;;;;;;32.93;32.32715;939.2665;;;;
2020/07/09 09:54:58;;;;;;;4;0.9;;;;;;;32.25;34.04199;939.2305;;;;
2020/07/09 09:57:25;;;;;;;4.3;1;;;;;;;32.36;33.82227;939.1967;;;;
2020/07/09 09:59:50;;;;;;;2.6;0.9;;;;;;;31.99;34.11816;939.2216;;;;
2020/07/09 10:02:17;;;;;;;3.4;1;;;;;;;31.78;34.71387;939.1836;;;;
2020/07/09 10:04:41;;;;;;;3.3;0.9;;;;;;;31.63;35.55176;939.1995;;;;
2020/07/09 10:07:07;;;;;;;4.3;2.2;;;;;;;31.36;34.74121;939.2015;;;;
2020/07/09 10:09:32;;;;;;;3.2;1;;;;;;;31.08;35.80859;939.1384;;;;
2020/07/09 10:11:58;;;;;;;3.2;1.1;;;;;;;30.59;36.27148;939.0539;;;;
2020/07/09 10:14:24;;;;;;;3.2;1.1;;;;;;;30.06;37.58984;939.1248;;;;
2020/07/09 10:19:14;;;;;;;3.2;1.1;;;;;;;29.93;40.35742;939.0924;;;;
2020/07/09 10:21:39;;;;;;;5;0.9;;;;;;;30.03;40.48633;939.1157;;;;
2020/07/09 10:24:04;;;;;;;2.4;0.8;;;;;;;30.26;38.93066;939.1049;;;;
2020/07/09 10:26:30;;;;;;;1.2;0.7;;;;;;;30.17;37.38379;939.0496;;;;
2020/07/09 10:28:54;;;;;;;5.1;0.9;;;;;;;30.23;37.72266;939.0645;;;;
2020/07/09 10:31:20;;;;;;;4.6;1;;;;;;;30.19;37.81445;939.0508;;;;
2020/07/09 10:33:45;;;;;;;2.6;1;;;;;;;30.19;38.48242;939.0272;;;;
2020/07/09 10:36:11;;;;;;;2.9;0.8;;;;;;;29.96;38.42871;939.0247;;;;
2020/07/09 10:38:36;;;;;;;9.1;1;;;;;;;29.86;39.40918;939.0185;;;;
2020/07/09 10:41:01;;;;;;;2.8;0.8;;;;;;;29.67;40.59668;938.9981;;;;
2020/07/09 10:43:26;;;;;;;2.9;0.8;;;;;;;29.76;38.4834;938.9617;;;;
2020/07/09 10:45:52;;;;;;;4.3;0.9;;;;;;;29.76;37.58887;938.942;;;;
2020/07/09 10:48:17;;;;;;;6.3;1.7;;;;;;;29.7;39.59863;938.9099;;;;
2020/07/09 10:50:42;;;;;;;4;1.1;;;;;;;29.78;41.12012;938.8602;;;;
2020/07/09 10:53:08;;;;;;;4.7;1.1;;;;;;;29.81;40.68164;938.809;;;;
2020/07/09 10:55:33;;;;;;;3.6;1;;;;;;;30;41.47363;938.8775;;;;
2020/07/09 10:57:58;;;;;;;3.2;0.9;;;;;;;30.25;39.95703;938.8084;;;;
2020/07/09 11:00:23;;;;;;;2.3;0.8;;;;;;;30.49;39.96582;938.7701;;;;
2020/07/09 11:02:49;;;;;;;2.9;0.9;;;;;;;30.5;39.27344;938.7885;;;;
2020/07/09 11:05:14;;;;;;;3;1;;;;;;;30.44;38.63574;938.7445;;;;
2020/07/09 11:07:39;;;;;;;2.3;1.3;;;;;;;30.51;39.48926;938.7068;;;;
2020/07/09 11:10:04;;;;;;;6.1;1.1;;;;;;;30.45;37.70508;938.715;;;;
2020/07/09 11:12:34;;;;;;;2.6;0.9;;;;;;;30.2;38.28125;938.7422;;;;
2020/07/09 11:14:59;;;;;;;4.4;1.1;;;;;;;30.36;39.58398;938.73;;;;
2020/07/09 11:17:24;;;;;;;2.3;0.9;;;;;;;30.54;38.37012;938.6249;;;;
2020/07/09 11:19:49;;;;;;;2.7;1;;;;;;;30.63;38.91504;938.6003;;;;
2020/07/09 11:22:15;;;;;;;4.1;1;;;;;;;30.97;39.85254;938.6534;;;;
2020/07/09 11:24:40;;;;;;;4.4;1;;;;;;;31.18;38.41113;938.6361;;;;
2020/07/09 11:27:05;;;;;;;5;1.1;;;;;;;31.31;39.11719;938.603;;;;
2020/07/09 11:29:33;;;;;;;4.6;1.2;;;;;;;31.4;39.1123;938.6083;;;;
2020/07/09 11:31:58;;;;;;;3.1;1.1;;;;;;;31.4;38.05957;938.5843;;;;
2020/07/09 11:34:23;;;;;;;4.1;1;;;;;;;31.34;38.4502;938.6018;;;;
2020/07/09 11:36:51;;;;;;;3;1.1;;;;;;;31.09;37.85352;938.6231;;;;
2020/07/09 11:39:13;;;;;;;4.4;1.1;;;;;;;30.72;38.12207;938.5811;;;;
2020/07/09 11:41:38;;;;;;;3.4;1;;;;;;;30.67;39.27637;938.5793;;;;
2020/07/09 11:44:03;;;;;;;3.5;0.9;;;;;;;30.46;38.14844;938.5623;;;;
2020/07/09 11:46:30;;;;;;;2.9;0.9;;;;;;;30.24;38.2373;938.5406;;;;
2020/07/09 11:48:55;;;;;;;2.5;1;;;;;;;30.05;38.84082;938.5269;;;;
2020/07/09 11:51:20;;;;;;;3.8;1;;;;;;;29.99;39.02734;938.4482;;;;
2020/07/09 11:53:45;;;;;;;6.1;0.9;;;;;;;29.87;39.29102;938.4582;;;;
2020/07/09 11:56:10;;;;;;;3.7;1;;;;;;;29.87;38.69434;938.4328;;;;
2020/07/09 11:58:37;;;;;;;2.2;0.8;;;;;;;29.92;39.42676;938.4122;;;;
2020/07/09 12:01:01;;;;;;;3.1;0.9;;;;;;;29.91;40.4043;938.3323;;;;
2020/07/09 12:03:27;;;;;;;3.5;0.9;;;;;;;29.9;40.67773;938.2847;;;;
2020/07/09 12:05:52;;;;;;;4.4;1;;;;;;;30.04;40.15332;938.3153;;;;
2020/07/09 12:08:19;;;;;;;3.6;1;;;;;;;30.25;38.8584;938.2445;;;;
2020/07/09 12:10:44;;;;;;;3.8;0.9;;;;;;;30.16;40.1875;938.2418;;;;
2020/07/09 12:13:11;;;;;;;4.4;1.2;;;;;;;30.3;38.92285;938.2673;;;;
2020/07/09 12:15:36;;;;;;;5.9;1.2;;;;;;;30.44;39.62793;938.165;;;;
2020/07/09 12:18:04;;;;;;;3.5;1;;;;;;;30.48;38.35254;938.2158;;;;
2020/07/09 12:20:29;;;;;;;4.2;1.2;;;;;;;30.37;37.36426;938.1752;;;;
2020/07/09 12:22:54;;;;;;;2.4;0.8;;;;;;;30.18;37.7666;938.1508;;;;
2020/07/09 12:25:20;;;;;;;4;0.9;;;;;;;30.26;37.58105;938.1995;;;;
2020/07/09 12:27:45;;;;;;;2.3;0.9;;;;;;;30.37;39.02441;938.1448;;;;
2020/07/09 12:30:10;;;;;;;2.9;0.8;;;;;;;30.62;38.40039;938.137;;;;
2020/07/09 12:32:36;;;;;;;5.8;1.2;;;;;;;31.01;38.8877;938.13;;;;
2020/07/09 12:35:04;;;;;;;5.1;1;;;;;;;31.14;37.81055;938.1025;;;;
2020/07/09 12:37:28;;;;;;;3.6;1;;;;;;;31.09;36.84863;938.0823;;;;
2020/07/09 12:39:53;;;;;;;5.2;1;;;;;;;30.78;37.60059;938.0875;;;;
2020/07/09 12:42:50;;;;;;;3.7;1.1;;;;;;;30.32;36.6084;938.0306;;;;
2020/07/09 12:45:59;;;;;;;6.5;1.4;;;;;;;29.93;37.87695;937.9601;;;;
2020/07/09 12:49:03;;;;;;;6.1;1.4;;;;;;;29.96;38.05762;937.9213;;;;
2020/07/09 12:51:49;;;;;;;5.9;1.1;;;;;;;30.19;38.5791;937.8613;;;;
2020/07/09 12:54:21;;;;;;;6.2;1.1;;;;;;;30.17;39.77051;937.8517;;;;
2020/07/09 12:58:03;;;;;;;2.2;1.1;;;;;;;30.37;40.14648;937.8688;;;;
2020/07/09 13:00:37;;;;;;;3.2;1;;;;;;;30.56;38.86035;937.8949;;;;
2020/07/09 13:03:13;;;;;;;3.7;1.2;;;;;;;30.72;38.93457;937.7866;;;;
2020/07/09 13:05:48;;;;;;;2.9;0.9;;;;;;;30.84;38.72949;937.7799;;;;
2020/07/09 13:08:57;;;;;;;4.3;1;;;;;;;31.03;38.79395;937.7673;;;;
2020/07/09 13:12:06;;;;;;;4.3;1.1;;;;;;;31.21;37.37402;937.7502;;;;
2020/07/09 13:14:38;;;;;;;3.8;1.1;;;;;;;31.31;37.40625;937.729;;;;
2020/07/09 13:20:14;;;;;;;2.7;0.9;;;;;;;31.36;36.83496;937.5884;;;;
2020/07/09 13:22:39;;;;;;;3.9;0.9;;;;;;;31.28;38.18066;937.5308;;;;
2020/07/09 13:26:32;;;;;;;3.5;1;;;;;;;31.29;38.64844;937.5422;;;;
2020/07/09 13:29:41;;;;;;;7.5;1.1;;;;;;;31.35;36.51172;937.4696;;;;
2020/07/09 13:32:39;;;;;;;3.2;1.2;;;;;;;31.33;38.47266;937.4135;;;;
2020/07/09 13:34:31;;;;;;;3.4;1.1;;;;;;;31.39;37.96289;937.3425;;;;
2020/07/09 13:36:56;;;;;;;4.6;1;;;;;;;31.41;38.79102;937.3578;;;;
2020/07/09 13:39:24;;;;;;;7.2;1;;;;;;;31.52;39.32617;937.3245;;;;
2020/07/09 13:41:57;;;;;;;17.5;1.7;;;;;;;31.29;37.28516;937.2696;;;;
2020/07/09 13:44:13;;;;;;;8.9;1.5;;;;;;;31.24;36.86133;937.2838;;;;
2020/07/09 13:46:39;;;;;;;10.8;1.6;;;;;;;31.17;38.91309;937.2163;;;;
2020/07/09 13:49:20;;;;;;;3.7;0.9;;;;;;;31.12;37.10352;937.2712;;;;
2020/07/09 13:51:28;;;;;;;4.6;1.3;;;;;;;31.21;37.64941;937.2659;;;;
2020/07/09 13:54:00;;;;;;;2.6;0.9;;;;;;;31.27;38.5752;937.197;;;;
2020/07/09 13:56:19;;;;;;;2.7;1;;;;;;;31.32;38.30371;937.162;;;;
2020/07/09 13:58:45;;;;;;;4.7;1;;;;;;;31.32;36.44922;937.1669;;;;
2020/07/09 14:01:10;;;;;;;3.2;0.9;;;;;;;31.23;37.36328;937.1526;;;;
2020/07/09 14:03:43;;;;;;;5.8;1;;;;;;;31.17;37.11914;937.1646;;;;
2020/07/09 14:06:16;;;;;;;3.6;1.1;;;;;;;31.1;39.45703;937.1267;;;;
2020/07/09 14:09:01;;;;;;;24.1;2;;;;;;;31.07;39.84961;937.0901;;;;
2020/07/09 14:12:10;;;;;;;7.9;1.1;;;;;;;30.97;38.51367;937.1027;;;;
2020/07/09 14:14:38;;;;;;;6.6;1.1;;;;;;;30.85;38.71875;937.1191;;;;
2020/07/09 14:17:00;;;;;;;7.1;1.2;;;;;;;30.67;39.19434;937.1047;;;;
2020/07/09 14:19:25;;;;;;;7.2;1.2;;;;;;;30.51;38.46289;937.0179;;;;
2020/07/09 14:21:50;;;;;;;3.9;1.1;;;;;;;30.35;39.16602;937.05;;;;
2020/07/09 14:24:17;;;;;;;5;1.3;;;;;;;30.35;40.13281;937.0823;;;;
2020/07/09 14:26:42;;;;;;;9.7;1.3;;;;;;;30.29;39.74512;937.0412;;;;
2020/07/09 14:31:32;;;;;;;9.8;1.2;;;;;;;29.94;42.66113;937.0059;;;;
2020/07/09 14:33:57;;;;;;;4.9;1.1;;;;;;;29.88;40.24609;936.9894;;;;
2020/07/09 14:36:22;;;;;;;4.8;1;;;;;;;29.73;39.875;937.0167;;;;
2020/07/09 14:38:47;;;;;;;5;0.8;;;;;;;29.77;41.02344;937.0334;;;;